Time;durP1;ratioP1;P1;durP2;ratioP2;P2;SDS_P1;SDS_P2;PMS_P1;PMS_P2;Temp;Humidity;BMP_temperature;BMP_pressure;BME280_temperature;BME280_humidity;BME280_pressure;Samples;Min_cycle;Max_cycle;Signal;HPM_P1;HPM_P2
2023/08/02 00:01:52;;;;;;;7.50;5.20;;;;;;;;;;5083154;28;20048;-81
2023/08/02 00:04:38;;;;;;;8.43;5.65;;;;;;;;;;5076288;28;20036;-81
2023/08/02 00:07:24;;;;;;;8.55;5.68;;;;;;;;;;5075000;28;20044;-82
2023/08/02 00:10:09;;;;;;;8.75;5.43;;;;;;;;;;5078171;28;20048;-79
2023/08/02 00:12:59;;;;;;;11.82;5.53;;;;;;;;;;5078189;28;20048;-79
2023/08/02 00:15:44;;;;;;;10.90;6.10;;;;;;;;;;5072304;28;20048;-79
2023/08/02 00:18:30;;;;;;;9.55;6.00;;;;;;;;;;5061003;28;20048;-79
2023/08/02 00:21:45;;;;;;;7.30;5.88;;;;;;;;;;5071981;28;20052;-84
2023/08/02 00:24:31;;;;;;;11.80;5.93;;;;;;;;;;5072165;28;20036;-79
2023/08/02 00:27:16;;;;;;;10.70;5.85;;;;;;;;;;5073035;28;20277;-79
2023/08/02 00:30:03;;;;;;;10.35;5.70;;;;;;;;;;5071992;28;20045;-80
2023/08/02 00:32:49;;;;;;;8.40;5.22;;;;;;;;;;5070974;28;20044;-79
2023/08/02 00:35:34;;;;;;;9.75;5.15;;;;;;;;;;5071964;28;20036;-79
2023/08/02 00:38:23;;;;;;;9.18;5.35;;;;;;;;;;5077355;28;20048;-80
2023/08/02 00:41:09;;;;;;;9.48;5.13;;;;;;;;;;5071586;28;20429;-79
2023/08/02 00:43:58;;;;;;;8.70;5.60;;;;;;;;;;5073724;28;20044;-79
2023/08/02 00:46:47;;;;;;;11.15;5.75;;;;;;;;;;5072940;28;20393;-80
2023/08/02 00:49:33;;;;;;;9.35;5.03;;;;;;;;;;5072385;28;20056;-79
2023/08/02 00:52:24;;;;;;;10.27;5.45;;;;;;;;;;5065267;28;20044;-80
2023/08/02 00:55:09;;;;;;;11.82;5.78;;;;;;;;;;5079382;28;20040;-81
2023/08/02 00:57:56;;;;;;;11.55;5.38;;;;;;;;;;5079570;28;20044;-79
2023/08/02 01:00:41;;;;;;;7.47;5.03;;;;;;;;;;5073481;28;20040;-79
2023/08/02 01:03:27;;;;;;;9.50;5.20;;;;;;;;;;5079378;28;20036;-79
2023/08/02 01:06:26;;;;;;;8.80;5.28;;;;;;;;;;5079251;28;20044;-79
2023/08/02 01:09:40;;;;;;;13.55;5.50;;;;;;;;;;5073764;28;20041;-81
2023/08/02 01:12:29;;;;;;;8.00;5.10;;;;;;;;;;5072350;28;20033;-80
2023/08/02 01:15:16;;;;;;;8.98;5.20;;;;;;;;;;5079154;28;20398;-79
2023/08/02 01:18:02;;;;;;;7.57;4.05;;;;;;;;;;5072763;28;20036;-81
2023/08/02 01:20:47;;;;;;;9.30;4.43;;;;;;;;;;5079339;28;20048;-80
2023/08/02 01:23:33;;;;;;;8.27;5.13;;;;;;;;;;5064920;28;20040;-80
2023/08/02 01:26:21;;;;;;;9.90;4.32;;;;;;;;;;5073510;28;20041;-81
2023/08/02 01:29:12;;;;;;;6.95;4.32;;;;;;;;;;5079094;28;20036;-81
2023/08/02 01:32:00;;;;;;;8.73;4.43;;;;;;;;;;5078870;28;20040;-80
2023/08/02 01:34:45;;;;;;;9.68;4.80;;;;;;;;;;5079123;28;20041;-83
2023/08/02 01:37:35;;;;;;;8.45;4.82;;;;;;;;;;5078896;28;20052;-80
2023/08/02 01:40:21;;;;;;;10.35;4.68;;;;;;;;;;5073375;28;20048;-82
2023/08/02 01:43:07;;;;;;;7.97;4.45;;;;;;;;;;5064569;28;20048;-80
2023/08/02 01:45:52;;;;;;;7.68;4.38;;;;;;;;;;5078853;28;20045;-81
2023/08/02 01:48:38;;;;;;;6.97;3.78;;;;;;;;;;5072896;28;20048;-81
2023/08/02 01:51:24;;;;;;;7.47;4.35;;;;;;;;;;5064656;28;20041;-81
2023/08/02 01:54:09;;;;;;;7.03;3.95;;;;;;;;;;5064660;28;20049;-81
2023/08/02 01:56:55;;;;;;;6.72;4.00;;;;;;;;;;5079367;28;20044;-81
2023/08/02 01:59:40;;;;;;;26.13;22.20;;;;;;;;;;5078540;28;20044;-81
2023/08/02 02:02:26;;;;;;;165.57;100.10;;;;;;;;;;5082925;28;20044;-81
2023/08/02 02:05:11;;;;;;;206.48;134.82;;;;;;;;;;5075806;28;20478;-80
2023/08/02 02:07:57;;;;;;;253.55;176.15;;;;;;;;;;5076635;28;20044;-81
2023/08/02 02:10:52;;;;;;;99.25;61.55;;;;;;;;;;5068773;28;20041;-81
2023/08/02 02:13:38;;;;;;;60.67;40.05;;;;;;;;;;5106983;28;20028;-82
2023/08/02 02:16:24;;;;;;;31.95;22.60;;;;;;;;;;5084433;28;20048;-81
2023/08/02 02:19:09;;;;;;;196.23;154.70;;;;;;;;;;5077196;28;20063;-82
2023/08/02 02:21:55;;;;;;;173.45;130.73;;;;;;;;;;5076844;28;20044;-81
2023/08/02 02:24:40;;;;;;;14.07;9.15;;;;;;;;;;5076383;28;20048;-81
2023/08/02 02:27:45;;;;;;;8.60;5.05;;;;;;;;;;5076384;28;20040;-80
2023/08/02 02:30:32;;;;;;;7.60;3.05;;;;;;;;;;5081973;28;20409;-81
2023/08/02 02:33:17;;;;;;;7.30;2.97;;;;;;;;;;5082501;28;20032;-81
2023/08/02 02:36:04;;;;;;;4.90;2.80;;;;;;;;;;5082104;28;20037;-81
2023/08/02 02:38:49;;;;;;;7.57;2.70;;;;;;;;;;5082215;28;20048;-81
2023/08/02 02:41:35;;;;;;;4.32;2.55;;;;;;;;;;5067349;28;20036;-81
2023/08/02 02:44:20;;;;;;;5.70;3.00;;;;;;;;;;5075958;28;20036;-81
2023/08/02 02:47:05;;;;;;;7.57;3.10;;;;;;;;;;5075920;28;20045;-81
2023/08/02 02:49:51;;;;;;;8.55;2.53;;;;;;;;;;5076381;28;20477;-81
2023/08/02 02:52:36;;;;;;;6.55;2.70;;;;;;;;;;5082001;28;20413;-81
2023/08/02 02:55:22;;;;;;;7.00;3.88;;;;;;;;;;5075876;28;20049;-81
2023/08/02 02:58:08;;;;;;;5.35;2.80;;;;;;;;;;5075934;28;20486;-81
2023/08/02 03:00:53;;;;;;;5.82;2.83;;;;;;;;;;5080703;28;20080;-81
2023/08/02 03:03:39;;;;;;;4.25;2.83;;;;;;;;;;5076106;28;20048;-81
2023/08/02 03:06:24;;;;;;;8.48;2.83;;;;;;;;;;5076257;28;20044;-80
2023/08/02 03:09:10;;;;;;;6.22;2.80;;;;;;;;;;5075556;28;20045;-80
2023/08/02 03:11:55;;;;;;;11.50;2.70;;;;;;;;;;5075300;28;20051;-80
2023/08/02 03:14:41;;;;;;;5.43;2.65;;;;;;;;;;5074946;28;20044;-79
2023/08/02 03:17:27;;;;;;;10.00;3.03;;;;;;;;;;5075288;28;20040;-80
2023/08/02 03:20:12;;;;;;;6.28;2.80;;;;;;;;;;5075331;28;20489;-80
2023/08/02 03:22:58;;;;;;;5.32;2.70;;;;;;;;;;5074499;28;20044;-80
2023/08/02 03:25:43;;;;;;;12.95;2.88;;;;;;;;;;5075452;28;20045;-80
2023/08/02 03:28:29;;;;;;;8.55;3.25;;;;;;;;;;5081108;28;20490;-80
2023/08/02 03:31:15;;;;;;;7.60;2.80;;;;;;;;;;5080855;28;20041;-80
2023/08/02 03:34:00;;;;;;;6.72;2.95;;;;;;;;;;5075052;28;20048;-80
2023/08/02 03:36:46;;;;;;;4.30;2.38;;;;;;;;;;5075003;28;20049;-81
2023/08/02 03:39:31;;;;;;;9.05;2.90;;;;;;;;;;5075200;28;20048;-80
2023/08/02 03:42:17;;;;;;;6.25;2.80;;;;;;;;;;5080328;28;20040;-81
2023/08/02 03:45:03;;;;;;;8.77;2.72;;;;;;;;;;5080460;28;20036;-80
2023/08/02 03:47:48;;;;;;;8.27;2.70;;;;;;;;;;5074999;28;20040;-80
2023/08/02 03:50:34;;;;;;;11.75;2.88;;;;;;;;;;5074743;28;20037;-80
2023/08/02 03:53:19;;;;;;;10.32;2.70;;;;;;;;;;5080864;28;20040;-80
2023/08/02 03:56:04;;;;;;;7.57;2.90;;;;;;;;;;5080759;28;20045;-80
2023/08/02 03:58:49;;;;;;;4.25;2.72;;;;;;;;;;5073422;28;20037;-80
2023/08/02 04:01:35;;;;;;;5.53;2.90;;;;;;;;;;5075032;28;20044;-80
2023/08/02 04:04:21;;;;;;;4.65;2.72;;;;;;;;;;5074530;28;20267;-81
2023/08/02 04:07:06;;;;;;;5.97;2.83;;;;;;;;;;5074811;28;20045;-81
2023/08/02 04:09:51;;;;;;;9.00;2.83;;;;;;;;;;5080052;28;20190;-80
2023/08/02 04:12:36;;;;;;;5.85;2.85;;;;;;;;;;5074461;28;20056;-80
2023/08/02 04:15:22;;;;;;;7.85;2.70;;;;;;;;;;5074394;28;20052;-81
2023/08/02 04:18:07;;;;;;;8.90;3.55;;;;;;;;;;5074306;28;20044;-81
2023/08/02 04:20:53;;;;;;;8.93;3.40;;;;;;;;;;5074688;28;20385;-80
2023/08/02 04:23:39;;;;;;;8.77;3.30;;;;;;;;;;5075090;28;20040;-81
2023/08/02 04:26:24;;;;;;;9.70;3.40;;;;;;;;;;5081914;28;20044;-82
2023/08/02 04:29:10;;;;;;;9.32;3.30;;;;;;;;;;5087868;28;20044;-79
2023/08/02 04:31:55;;;;;;;8.13;3.05;;;;;;;;;;5081160;28;20052;-80
2023/08/02 04:34:40;;;;;;;4.70;3.38;;;;;;;;;;5074990;28;20036;-80
2023/08/02 04:37:26;;;;;;;6.57;2.70;;;;;;;;;;5073931;28;20037;-80
2023/08/02 04:40:11;;;;;;;7.30;3.20;;;;;;;;;;5074037;28;20044;-80
2023/08/02 04:42:57;;;;;;;6.72;2.92;;;;;;;;;;5073953;28;20044;-81
2023/08/02 04:45:43;;;;;;;6.60;3.55;;;;;;;;;;5072876;28;20044;-80
2023/08/02 04:48:28;;;;;;;5.93;3.40;;;;;;;;;;5073539;28;20036;-80
2023/08/02 04:51:14;;;;;;;6.40;3.22;;;;;;;;;;5079655;28;20048;-81
2023/08/02 04:53:59;;;;;;;15.40;3.13;;;;;;;;;;5079339;28;20048;-81
2023/08/02 04:56:45;;;;;;;7.38;2.58;;;;;;;;;;5072689;28;20041;-81
2023/08/02 04:59:30;;;;;;;6.10;2.67;;;;;;;;;;5073434;28;20044;-80
2023/08/02 05:02:16;;;;;;;9.45;2.78;;;;;;;;;;5073290;28;20397;-80
2023/08/02 05:05:05;;;;;;;11.32;2.65;;;;;;;;;;5073817;28;20048;-80
2023/08/02 05:07:50;;;;;;;6.78;3.28;;;;;;;;;;5073613;28;20049;-81
2023/08/02 05:10:39;;;;;;;6.30;2.92;;;;;;;;;;5073531;28;20040;-81
2023/08/02 05:13:25;;;;;;;9.23;3.00;;;;;;;;;;5072554;28;20036;-81
2023/08/02 05:16:13;;;;;;;5.80;2.90;;;;;;;;;;5072249;28;20048;-80
2023/08/02 05:18:58;;;;;;;6.13;2.65;;;;;;;;;;5073322;28;20386;-80
2023/08/02 05:21:44;;;;;;;4.80;2.58;;;;;;;;;;5073221;28;20044;-80
2023/08/02 05:24:29;;;;;;;5.53;2.80;;;;;;;;;;5078840;28;20048;-81
2023/08/02 05:27:15;;;;;;;5.00;2.92;;;;;;;;;;5073385;28;20045;-80
2023/08/02 05:30:01;;;;;;;5.25;3.40;;;;;;;;;;5078741;28;20041;-81
2023/08/02 05:32:49;;;;;;;7.00;3.05;;;;;;;;;;5073265;28;20482;-80
2023/08/02 05:35:35;;;;;;;7.32;3.38;;;;;;;;;;5076005;28;20406;-81
2023/08/02 05:38:21;;;;;;;7.82;2.83;;;;;;;;;;5076731;28;20096;-81
2023/08/02 05:41:06;;;;;;;7.22;3.40;;;;;;;;;;5077346;28;20485;-81
2023/08/02 05:43:52;;;;;;;6.15;3.35;;;;;;;;;;5077113;28;20049;-81
2023/08/02 05:46:37;;;;;;;5.90;2.97;;;;;;;;;;5077309;28;20037;-81
2023/08/02 05:49:23;;;;;;;12.80;3.55;;;;;;;;;;5076993;28;20048;-81
2023/08/02 05:52:08;;;;;;;6.95;3.30;;;;;;;;;;5083070;28;20056;-81
2023/08/02 05:54:53;;;;;;;11.48;3.50;;;;;;;;;;5082731;28;20498;-81
2023/08/02 05:57:38;;;;;;;7.22;3.58;;;;;;;;;;5076976;28;20045;-80
2023/08/02 06:00:24;;;;;;;6.45;3.80;;;;;;;;;;5076639;28;20048;-81
2023/08/02 06:03:10;;;;;;;5.72;3.30;;;;;;;;;;5076389;28;20049;-80
2023/08/02 06:05:55;;;;;;;11.60;3.55;;;;;;;;;;5076716;28;20053;-80
2023/08/02 06:08:43;;;;;;;8.38;3.30;;;;;;;;;;5076996;28;20048;-81
2023/08/02 06:11:28;;;;;;;5.32;3.20;;;;;;;;;;5075317;28;20040;-81
2023/08/02 06:14:13;;;;;;;6.10;3.50;;;;;;;;;;5076437;28;20056;-79
2023/08/02 06:16:59;;;;;;;6.13;3.75;;;;;;;;;;5077052;28;20036;-81
2023/08/02 06:19:45;;;;;;;6.55;2.20;;;;;;;;;;5076243;28;20486;-82
2023/08/02 06:22:30;;;;;;;6.43;2.50;;;;;;;;;;5081460;28;20036;-81
2023/08/02 06:25:15;;;;;;;5.93;2.67;;;;;;;;;;5076358;28;20049;-82
2023/08/02 06:28:01;;;;;;;5.78;2.22;;;;;;;;;;5075678;28;20053;-82
2023/08/02 06:30:46;;;;;;;4.45;2.20;;;;;;;;;;5076749;28;20404;-82
2023/08/02 06:33:32;;;;;;;3.88;2.13;;;;;;;;;;5075915;28;20052;-81
2023/08/02 06:36:17;;;;;;;6.45;1.60;;;;;;;;;;5079021;28;20044;-80
2023/08/02 06:39:02;;;;;;;2.80;1.52;;;;;;;;;;5105108;28;20482;-80
2023/08/02 06:41:48;;;;;;;2.08;1.63;;;;;;;;;;5077889;28;20044;-82
2023/08/02 06:44:33;;;;;;;4.72;1.95;;;;;;;;;;5081872;28;20045;-81
2023/08/02 06:47:20;;;;;;;3.63;1.88;;;;;;;;;;5075289;28;20429;-82
2023/08/02 06:50:05;;;;;;;5.93;1.63;;;;;;;;;;5075080;28;20036;-83
2023/08/02 06:52:50;;;;;;;4.90;2.13;;;;;;;;;;5075040;28;20052;-80
2023/08/02 06:55:36;;;;;;;2.45;1.95;;;;;;;;;;5076325;28;20347;-82
2023/08/02 06:58:21;;;;;;;2.28;1.55;;;;;;;;;;5081584;28;20486;-82
2023/08/02 07:01:15;;;;;;;2.17;1.30;;;;;;;;;;5075866;28;20052;-82
2023/08/02 07:04:01;;;;;;;1.92;1.58;;;;;;;;;;5074822;28;20490;-82
2023/08/02 07:06:46;;;;;;;2.47;1.50;;;;;;;;;;5081412;28;20044;-81
2023/08/02 07:09:32;;;;;;;6.38;1.45;;;;;;;;;;5075993;28;20056;-81
2023/08/02 07:12:18;;;;;;;3.00;1.10;;;;;;;;;;5080939;28;20040;-80
2023/08/02 07:15:03;;;;;;;2.05;0.95;;;;;;;;;;5075421;28;20044;-80
2023/08/02 07:17:49;;;;;;;1.90;1.05;;;;;;;;;;5075272;28;20045;-81
2023/08/02 07:20:34;;;;;;;2.85;1.08;;;;;;;;;;5081146;28;20045;-81
2023/08/02 07:23:21;;;;;;;1.40;0.95;;;;;;;;;;5074830;28;20045;-80
2023/08/02 07:26:06;;;;;;;2.55;0.80;;;;;;;;;;5075351;28;20037;-76
2023/08/02 07:28:52;;;;;;;1.25;0.70;;;;;;;;;;5081896;28;20406;-76
2023/08/02 07:31:37;;;;;;;2.22;0.88;;;;;;;;;;5075357;28;20052;-77
2023/08/02 07:34:23;;;;;;;1.73;0.70;;;;;;;;;;5074468;28;20049;-78
2023/08/02 07:37:08;;;;;;;1.63;0.90;;;;;;;;;;5081913;28;20040;-78
2023/08/02 07:39:54;;;;;;;1.38;0.80;;;;;;;;;;5081855;28;20049;-77
2023/08/02 07:42:40;;;;;;;5.05;0.98;;;;;;;;;;5074832;28;20048;-77
2023/08/02 07:45:33;;;;;;;3.20;1.00;;;;;;;;;;5074884;28;20036;-79
2023/08/02 07:48:21;;;;;;;4.05;1.13;;;;;;;;;;5074161;28;20230;-76
2023/08/02 07:51:07;;;;;;;1.45;0.80;;;;;;;;;;5081650;28;20397;-78
2023/08/02 07:53:52;;;;;;;1.60;0.60;;;;;;;;;;5074901;28;20044;-77
2023/08/02 07:56:38;;;;;;;1.42;0.90;;;;;;;;;;5081118;28;20036;-75
2023/08/02 07:59:23;;;;;;;3.38;1.60;;;;;;;;;;5072755;28;20049;-76
2023/08/02 08:02:09;;;;;;;2.03;0.60;;;;;;;;;;5072225;28;20497;-75
2023/08/02 08:04:55;;;;;;;1.30;0.80;;;;;;;;;;5073809;28;20397;-77
2023/08/02 08:07:40;;;;;;;1.00;0.82;;;;;;;;;;5079918;28;20394;-75
2023/08/02 08:10:26;;;;;;;1.20;0.90;;;;;;;;;;5073034;28;20045;-76
2023/08/02 08:13:11;;;;;;;6.97;3.78;;;;;;;;;;5081215;28;20049;-76
2023/08/02 08:15:57;;;;;;;1.52;0.77;;;;;;;;;;5079276;28;20045;-76
2023/08/02 08:18:44;;;;;;;1.58;0.90;;;;;;;;;;5077090;28;20044;-77
2023/08/02 08:21:31;;;;;;;141.65;107.05;;;;;;;;;;5073909;28;20044;-76
2023/08/02 08:24:17;;;;;;;4.32;3.08;;;;;;;;;;5072600;28;20036;-77
2023/08/02 08:27:03;;;;;;;4.85;2.13;;;;;;;;;;5073990;28;20054;-77
2023/08/02 08:29:49;;;;;;;23.95;19.67;;;;;;;;;;5073965;28;20048;-78
2023/08/02 08:32:34;;;;;;;1.75;1.30;;;;;;;;;;5074230;28;20049;-77
2023/08/02 08:35:20;;;;;;;6.82;2.72;;;;;;;;;;5080212;28;20386;-78
2023/08/02 08:38:05;;;;;;;8.20;5.28;;;;;;;;;;5073704;28;20045;-78
2023/08/02 08:40:53;;;;;;;2.38;1.40;;;;;;;;;;5073093;28;20044;-78
2023/08/02 08:43:39;;;;;;;2.00;1.00;;;;;;;;;;5071675;28;20044;-79
2023/08/02 08:46:25;;;;;;;2.30;1.17;;;;;;;;;;5079686;28;20044;-78
2023/08/02 08:49:10;;;;;;;4.70;2.45;;;;;;;;;;5088441;28;20040;-80
2023/08/02 08:51:58;;;;;;;1.15;1.05;;;;;;;;;;5090508;28;20056;-79
2023/08/02 08:54:45;;;;;;;3.80;2.70;;;;;;;;;;5079956;28;20394;-80
2023/08/02 08:57:31;;;;;;;4.88;1.23;;;;;;;;;;5078701;28;20048;-79
2023/08/02 09:00:17;;;;;;;6.53;1.10;;;;;;;;;;5079804;28;20040;-79
2023/08/02 09:03:03;;;;;;;1.45;1.10;;;;;;;;;;5073447;28;20048;-78
2023/08/02 09:05:49;;;;;;;1.30;1.20;;;;;;;;;;5059019;28;20049;-78
2023/08/02 09:08:43;;;;;;;3.55;1.10;;;;;;;;;;5060084;28;20049;-77
2023/08/02 09:11:29;;;;;;;1.02;0.93;;;;;;;;;;5053770;28;20049;-79
2023/08/02 09:14:16;;;;;;;1.30;1.10;;;;;;;;;;5052366;28;20045;-78
2023/08/02 09:17:03;;;;;;;2.65;1.25;;;;;;;;;;5053207;28;20049;-78
2023/08/02 09:19:48;;;;;;;1.30;1.00;;;;;;;;;;5052953;28;20053;-77
2023/08/02 09:22:36;;;;;;;1.70;1.15;;;;;;;;;;5053564;28;20103;-77
2023/08/02 09:25:27;;;;;;;8.45;6.05;;;;;;;;;;5053553;28;20045;-79
2023/08/02 09:28:12;;;;;;;1.73;1.08;;;;;;;;;;5053381;28;20045;-76
2023/08/02 09:31:16;;;;;;;1.83;1.15;;;;;;;;;;5053067;28;20044;-77
2023/08/02 09:34:02;;;;;;;;;;;;;;;;;;5059459;28;20045;-76
2023/08/02 09:36:48;;;;;;;4.28;1.17;;;;;;;;;;5059718;28;20259;-76
2023/08/02 09:39:33;;;;;;;1.90;1.23;;;;;;;;;;5052307;28;20049;-78
2023/08/02 09:42:25;;;;;;;4.63;1.35;;;;;;;;;;5058244;28;20406;-76
2023/08/02 09:45:11;;;;;;;1.95;1.30;;;;;;;;;;5058359;28;20045;-76
2023/08/02 09:47:57;;;;;;;3.03;1.77;;;;;;;;;;5052796;28;20045;-76
2023/08/02 09:50:58;;;;;;;1.58;1.48;;;;;;;;;;5060139;28;20048;-77
2023/08/02 09:54:08;;;;;;;2.35;1.88;;;;;;;;;;5052905;28;20486;-80
2023/08/02 09:56:57;;;;;;;6.57;1.85;;;;;;;;;;5051200;28;20040;-75
2023/08/02 09:59:43;;;;;;;3.85;2.20;;;;;;;;;;5050835;28;20053;-76
2023/08/02 10:02:30;;;;;;;3.63;2.22;;;;;;;;;;5051936;28;20049;-76
2023/08/02 10:05:16;;;;;;;3.17;2.15;;;;;;;;;;5051874;28;20041;-76
2023/08/02 10:08:01;;;;;;;2.83;2.03;;;;;;;;;;5058356;28;20053;-77
2023/08/02 10:10:52;;;;;;;4.80;2.35;;;;;;;;;;5052584;28;20048;-76
2023/08/02 10:13:39;;;;;;;3.35;1.90;;;;;;;;;;5059623;28;20041;-76
2023/08/02 10:16:25;;;;;;;4.88;1.88;;;;;;;;;;5052894;28;20048;-77
2023/08/02 10:19:12;;;;;;;2.15;1.92;;;;;;;;;;5054635;28;20045;-77
2023/08/02 10:21:59;;;;;;;2.60;1.73;;;;;;;;;;5061339;28;20037;-76
2023/08/02 10:24:46;;;;;;;2.55;1.85;;;;;;;;;;5056558;28;20048;-77
2023/08/02 10:27:32;;;;;;;7.93;1.90;;;;;;;;;;5056317;28;20049;-77
2023/08/02 10:30:17;;;;;;;2.05;1.70;;;;;;;;;;5062198;28;20045;-77
2023/08/02 10:33:20;;;;;;;2.20;2.00;;;;;;;;;;5063047;28;20053;-77
2023/08/02 10:36:07;;;;;;;2.15;1.95;;;;;;;;;;5055261;28;20045;-77
2023/08/02 10:38:53;;;;;;;2.50;2.00;;;;;;;;;;5056569;28;20045;-77
2023/08/02 10:41:57;;;;;;;3.83;1.90;;;;;;;;;;5063026;28;20041;-77
2023/08/02 10:44:54;;;;;;;;;;;;;;;;;;5063163;28;20049;-77
2023/08/02 10:47:41;;;;;;;2.70;1.98;;;;;;;;;;5055815;28;20370;-77
2023/08/02 10:50:46;;;;;;;4.35;2.25;;;;;;;;;;5056067;28;20040;-77
2023/08/02 10:53:31;;;;;;;3.70;1.80;;;;;;;;;;5056354;28;20045;-77
2023/08/02 10:56:17;;;;;;;2.60;1.80;;;;;;;;;;5061526;28;20045;-78
2023/08/02 10:59:02;;;;;;;5.63;1.98;;;;;;;;;;5055922;28;20037;-76
2023/08/02 11:02:08;;;;;;;2.30;2.10;;;;;;;;;;5069254;28;20049;-76
2023/08/02 11:04:54;;;;;;;5.30;2.53;;;;;;;;;;5062327;28;20049;-76
2023/08/02 11:07:39;;;;;;;2.28;1.98;;;;;;;;;;5055617;28;20486;-76
2023/08/02 11:10:25;;;;;;;2.95;1.95;;;;;;;;;;5062087;28;20040;-77
2023/08/02 11:13:10;;;;;;;4.28;1.75;;;;;;;;;;5061749;28;20053;-76
2023/08/02 11:16:01;;;;;;;3.38;1.80;;;;;;;;;;5055458;28;20041;-77
2023/08/02 11:18:49;;;;;;;3.70;1.67;;;;;;;;;;5055133;28;20045;-76
2023/08/02 11:21:34;;;;;;;4.55;2.10;;;;;;;;;;5055209;28;20033;-75
2023/08/02 11:24:19;;;;;;;3.03;2.00;;;;;;;;;;5061958;28;20471;-76
2023/08/02 11:27:04;;;;;;;3.63;2.00;;;;;;;;;;5054383;28;20049;-76
2023/08/02 11:30:07;;;;;;;5.68;2.10;;;;;;;;;;5054771;28;20490;-76
2023/08/02 11:32:52;;;;;;;3.63;2.63;;;;;;;;;;5061309;28;20045;-77
2023/08/02 11:35:38;;;;;;;2.30;2.10;;;;;;;;;;5061735;28;20041;-76
2023/08/02 11:38:25;;;;;;;2.65;1.92;;;;;;;;;;5061183;28;20037;-77
2023/08/02 11:41:19;;;;;;;2.33;2.13;;;;;;;;;;5061711;28;20389;-78
2023/08/02 11:44:15;;;;;;;2.80;2.13;;;;;;;;;;5054894;28;20048;-77
2023/08/02 11:47:00;;;;;;;2.28;1.90;;;;;;;;;;5054861;28;20037;-76
2023/08/02 11:49:56;;;;;;;2.90;2.60;;;;;;;;;;5061874;28;20045;-76
2023/08/02 11:52:41;;;;;;;5.57;2.58;;;;;;;;;;5055706;28;20041;-77
2023/08/02 11:55:27;;;;;;;5.00;2.50;;;;;;;;;;5057404;28;20041;-76
2023/08/02 11:58:13;;;;;;;2.60;2.33;;;;;;;;;;5053115;28;20060;-78
2023/08/02 12:00:59;;;;;;;4.05;2.65;;;;;;;;;;5061365;28;20041;-76
2023/08/02 12:04:05;;;;;;;5.82;4.10;;;;;;;;;;5054351;28;20045;-76
2023/08/02 12:06:53;;;;;;;5.40;3.70;;;;;;;;;;5054853;28;20052;-77
2023/08/02 12:09:40;;;;;;;5.88;3.40;;;;;;;;;;5060467;28;20049;-78
2023/08/02 12:12:30;;;;;;;5.47;3.90;;;;;;;;;;5060024;28;20041;-78
2023/08/02 12:15:16;;;;;;;5.65;4.00;;;;;;;;;;5062032;28;20390;-82
2023/08/02 12:18:06;;;;;;;6.60;3.75;;;;;;;;;;5055006;28;20475;-82
2023/08/02 12:20:52;;;;;;;5.13;4.00;;;;;;;;;;5055471;28;20053;-83
2023/08/02 12:23:38;;;;;;;4.50;3.88;;;;;;;;;;5054620;28;20048;-82
2023/08/02 12:26:42;;;;;;;6.38;4.35;;;;;;;;;;5054400;28;20406;-82
2023/08/02 12:29:27;;;;;;;8.27;4.45;;;;;;;;;;5053010;28;20049;-82
2023/08/02 12:32:26;;;;;;;5.53;3.67;;;;;;;;;;5055358;28;20045;-83
2023/08/02 12:35:13;;;;;;;4.22;3.83;;;;;;;;;;5060539;28;20041;-81
2023/08/02 12:38:00;;;;;;;7.57;4.07;;;;;;;;;;5054170;28;20049;-80
2023/08/02 12:40:46;;;;;;;4.38;3.80;;;;;;;;;;5061211;28;20041;-78
2023/08/02 12:43:32;;;;;;;4.72;3.60;;;;;;;;;;5059664;28;20395;-80
2023/08/02 12:46:18;;;;;;;5.63;3.95;;;;;;;;;;5060713;28;20041;-80
2023/08/02 12:49:04;;;;;;;6.00;4.30;;;;;;;;;;5053389;28;20053;-81
2023/08/02 12:51:49;;;;;;;5.32;4.70;;;;;;;;;;5054436;28;20040;-80
2023/08/02 12:54:35;;;;;;;5.68;4.80;;;;;;;;;;5054162;28;20056;-81
2023/08/02 12:57:21;;;;;;;6.90;4.90;;;;;;;;;;5060766;28;20044;-80
2023/08/02 13:00:07;;;;;;;7.45;4.80;;;;;;;;;;5060758;28;20045;-80
2023/08/02 13:02:53;;;;;;;6.03;4.65;;;;;;;;;;5053474;28;20048;-81
2023/08/02 13:05:38;;;;;;;9.38;5.25;;;;;;;;;;5053443;28;20422;-81
2023/08/02 13:08:24;;;;;;;8.43;4.70;;;;;;;;;;5060114;28;20044;-81
2023/08/02 13:11:10;;;;;;;5.55;4.07;;;;;;;;;;5055223;28;20044;-82
2023/08/02 13:13:55;;;;;;;7.22;4.85;;;;;;;;;;5066365;28;20045;-81
2023/08/02 13:16:41;;;;;;;5.85;4.70;;;;;;;;;;5072383;28;20041;-77
2023/08/02 13:19:27;;;;;;;6.25;4.50;;;;;;;;;;5058337;28;20057;-79
2023/08/02 13:22:13;;;;;;;5.70;4.50;;;;;;;;;;5060217;28;20479;-77
2023/08/02 13:25:00;;;;;;;8.65;4.65;;;;;;;;;;5053363;28;20036;-77
2023/08/02 13:27:45;;;;;;;4.93;4.50;;;;;;;;;;5059401;28;20045;-77
2023/08/02 13:30:30;;;;;;;4.57;4.18;;;;;;;;;;5053558;28;20037;-77
2023/08/02 13:33:16;;;;;;;8.60;4.55;;;;;;;;;;5053302;28;20057;-77
2023/08/02 13:36:01;;;;;;;4.38;3.97;;;;;;;;;;5059763;28;20041;-75
2023/08/02 13:38:46;;;;;;;4.30;3.88;;;;;;;;;;5060000;28;20481;-76
2023/08/02 13:41:35;;;;;;;6.10;4.20;;;;;;;;;;5060311;28;20390;-79
2023/08/02 13:44:23;;;;;;;4.45;4.05;;;;;;;;;;5051727;28;20041;-78
2023/08/02 13:47:09;;;;;;;8.80;3.88;;;;;;;;;;5058444;28;20414;-79
2023/08/02 13:49:55;;;;;;;3.80;3.50;;;;;;;;;;5061897;28;20045;-82
2023/08/02 13:52:41;;;;;;;5.30;4.00;;;;;;;;;;5055931;28;20045;-76
2023/08/02 13:55:27;;;;;;;5.53;4.05;;;;;;;;;;5055606;28;20041;-78
2023/08/02 13:58:12;;;;;;;7.03;4.28;;;;;;;;;;5060075;28;20040;-78
2023/08/02 14:00:58;;;;;;;5.97;4.30;;;;;;;;;;5062459;28;20482;-77
2023/08/02 14:03:44;;;;;;;6.07;4.80;;;;;;;;;;5060343;28;20429;-77
2023/08/02 14:06:29;;;;;;;6.32;4.60;;;;;;;;;;5063723;28;20053;-75
2023/08/02 14:09:15;;;;;;;5.90;4.60;;;;;;;;;;5063525;28;20045;-75
2023/08/02 14:12:00;;;;;;;6.10;4.13;;;;;;;;;;5056918;28;20049;-77
2023/08/02 14:14:49;;;;;;;4.85;4.43;;;;;;;;;;5063314;28;20053;-77
2023/08/02 14:17:35;;;;;;;4.40;4.00;;;;;;;;;;5064082;28;20068;-77
2023/08/02 14:20:20;;;;;;;7.05;5.05;;;;;;;;;;5057155;28;20045;-77
2023/08/02 14:23:06;;;;;;;5.97;4.20;;;;;;;;;;5063626;28;20494;-77
2023/08/02 14:25:51;;;;;;;5.82;4.57;;;;;;;;;;5063226;28;20040;-77
2023/08/02 14:28:37;;;;;;;8.65;4.68;;;;;;;;;;5062660;28;20037;-77
2023/08/02 14:31:23;;;;;;;8.10;4.05;;;;;;;;;;5063215;28;20045;-78
2023/08/02 14:34:08;;;;;;;7.28;4.80;;;;;;;;;;5062951;28;20402;-79
2023/08/02 14:36:54;;;;;;;12.60;4.63;;;;;;;;;;5057510;28;20136;-79
2023/08/02 14:39:39;;;;;;;7.55;4.15;;;;;;;;;;5063127;28;20070;-78
2023/08/02 14:42:26;;;;;;;5.05;3.92;;;;;;;;;;5070554;28;20041;-78
2023/08/02 14:45:11;;;;;;;7.00;3.85;;;;;;;;;;5054359;28;20041;-78
2023/08/02 14:47:57;;;;;;;6.47;3.72;;;;;;;;;;5064195;28;20041;-78
2023/08/02 14:50:42;;;;;;;4.20;3.80;;;;;;;;;;5062758;28;20045;-77
2023/08/02 14:53:28;;;;;;;5.53;4.00;;;;;;;;;;5055879;28;20041;-79
2023/08/02 14:56:14;;;;;;;4.15;3.40;;;;;;;;;;5062638;28;20041;-78
2023/08/02 14:58:59;;;;;;;7.38;3.72;;;;;;;;;;5062468;28;20044;-78
2023/08/02 15:01:45;;;;;;;3.95;3.55;;;;;;;;;;5056356;28;20398;-78
2023/08/02 15:04:30;;;;;;;3.88;3.47;;;;;;;;;;5061341;28;20045;-78
2023/08/02 15:07:16;;;;;;;8.70;3.80;;;;;;;;;;5055038;28;20044;-77
2023/08/02 15:10:02;;;;;;;7.03;3.70;;;;;;;;;;5055838;28;20037;-78
2023/08/02 15:12:47;;;;;;;4.93;3.72;;;;;;;;;;5062219;28;20056;-78
2023/08/02 15:15:33;;;;;;;3.53;3.22;;;;;;;;;;5061129;28;20479;-79
2023/08/02 15:18:18;;;;;;;4.10;3.47;;;;;;;;;;5055242;28;20399;-77
2023/08/02 15:21:04;;;;;;;5.38;3.75;;;;;;;;;;5056079;28;20041;-78
2023/08/02 15:23:50;;;;;;;4.93;3.63;;;;;;;;;;5062081;28;20045;-78
2023/08/02 15:26:35;;;;;;;4.90;3.65;;;;;;;;;;5055190;28;20041;-79
2023/08/02 15:29:20;;;;;;;4.72;3.33;;;;;;;;;;5061161;28;20041;-79
2023/08/02 15:32:06;;;;;;;7.45;3.20;;;;;;;;;;5055689;28;20041;-78
2023/08/02 15:34:51;;;;;;;4.35;3.38;;;;;;;;;;5068916;28;20406;-77
2023/08/02 15:37:36;;;;;;;9.48;3.60;;;;;;;;;;5068099;28;20389;-82
2023/08/02 15:40:21;;;;;;;5.88;3.20;;;;;;;;;;5061956;28;20037;-84
2023/08/02 15:43:07;;;;;;;5.28;3.72;;;;;;;;;;5055336;28;20044;-84
2023/08/02 15:45:53;;;;;;;4.95;3.35;;;;;;;;;;5055541;28;20045;-83
2023/08/02 15:48:41;;;;;;;3.40;3.10;;;;;;;;;;5053892;28;20045;-83
2023/08/02 15:51:26;;;;;;;5.93;3.75;;;;;;;;;;5060408;28;20041;-81
2023/08/02 15:54:12;;;;;;;3.70;3.40;;;;;;;;;;5054239;28;20052;-79
2023/08/02 15:56:57;;;;;;;13.80;8.73;;;;;;;;;;5053119;28;20052;-80
2023/08/02 15:59:43;;;;;;;6.07;3.28;;;;;;;;;;5060866;28;20045;-79
2023/08/02 16:02:29;;;;;;;4.97;3.55;;;;;;;;;;5060664;28;20041;-78
2023/08/02 16:05:15;;;;;;;4.13;3.40;;;;;;;;;;5059435;28;20414;-79
2023/08/02 16:08:01;;;;;;;21.05;12.35;;;;;;;;;;5054563;28;20041;-79
2023/08/02 16:10:46;;;;;;;6.45;4.10;;;;;;;;;;5060084;28;20053;-80
2023/08/02 16:13:32;;;;;;;3.85;3.45;;;;;;;;;;5060375;28;20044;-79
2023/08/02 16:16:17;;;;;;;8.30;4.65;;;;;;;;;;5061192;28;20036;-77
2023/08/02 16:19:02;;;;;;;3.90;3.45;;;;;;;;;;5055984;28;20045;-77
2023/08/02 16:21:48;;;;;;;4.97;3.60;;;;;;;;;;5053494;28;20041;-76
2023/08/02 16:24:34;;;;;;;5.15;3.55;;;;;;;;;;5061057;28;20052;-76
2023/08/02 16:27:22;;;;;;;24.55;13.88;;;;;;;;;;5054488;28;20049;-78
2023/08/02 16:30:09;;;;;;;5.78;3.40;;;;;;;;;;5060966;28;20044;-76
2023/08/02 16:32:54;;;;;;;7.90;4.32;;;;;;;;;;5054205;28;20048;-78
2023/08/02 16:35:40;;;;;;;7.53;3.90;;;;;;;;;;5053905;28;20037;-78
2023/08/02 16:38:25;;;;;;;3.92;3.30;;;;;;;;;;5060940;28;20045;-79